createdAt,value
2023-05-10T00:01:01.086Z,13.73
2023-05-10T00:03:28.206Z,13.61
2023-05-10T00:05:55.470Z,13.68
2023-05-10T00:08:22.735Z,13.38
2023-05-10T00:10:50.382Z,13.48
2023-05-10T00:13:17.569Z,13.44
2023-05-10T00:15:44.622Z,13.03
2023-05-10T00:18:11.979Z,13.12
2023-05-10T00:20:39.019Z,13.50
2023-05-10T00:23:06.244Z,13.52
2023-05-10T00:25:33.628Z,13.70
2023-05-10T00:28:02.279Z,13.22
2023-05-10T00:30:29.379Z,12.74
2023-05-10T00:32:56.450Z,13.08
2023-05-10T00:35:23.787Z,13.02
2023-05-10T00:37:51.010Z,13.04
2023-05-10T00:40:18.360Z,13.24
2023-05-10T00:42:45.946Z,12.74
2023-05-10T00:45:13.057Z,13.42
2023-05-10T00:47:40.684Z,13.06
2023-05-10T00:50:09.698Z,13.34
2023-05-10T00:52:36.893Z,13.44
2023-05-10T00:55:04.988Z,13.01
2023-05-10T00:57:32.653Z,13.24
2023-05-10T01:00:00.384Z,13.37
2023-05-10T01:02:28.263Z,13.31
2023-05-10T01:04:56.191Z,13.10
2023-05-10T01:07:23.303Z,13.18
2023-05-10T01:09:50.420Z,13.78
2023-05-10T01:12:17.581Z,13.27
2023-05-10T01:14:44.858Z,13.13
2023-05-10T01:17:13.224Z,13.29
2023-05-10T01:19:40.493Z,12.72
2023-05-10T01:23:08.837Z,12.84
2023-05-10T01:27:01.005Z,12.89
2023-05-10T01:30:36.901Z,12.73
2023-05-10T01:33:32.945Z,12.60
2023-05-10T01:36:26.925Z,13.04
2023-05-10T01:39:12.729Z,12.65
2023-05-10T01:42:12.029Z,13.07
2023-05-10T01:45:26.676Z,12.80
2023-05-10T01:48:13.101Z,13.10
2023-05-10T01:50:46.364Z,13.17
2023-05-10T01:53:18.899Z,13.25
2023-05-10T01:55:56.169Z,13.43
2023-05-10T01:58:33.546Z,13.20
2023-05-10T02:01:05.127Z,12.67
2023-05-10T02:03:33.243Z,13.56
2023-05-10T02:06:00.728Z,13.43
2023-05-10T02:08:28.289Z,12.95
2023-05-10T02:10:57.769Z,12.63
2023-05-10T02:13:27.855Z,12.76
2023-05-10T02:15:56.655Z,12.72
2023-05-10T02:18:24.821Z,12.88
2023-05-10T02:20:53.523Z,12.26
2023-05-10T02:23:22.486Z,12.18
2023-05-10T02:25:54.794Z,12.56
2023-05-10T02:28:24.859Z,12.57
2023-05-10T02:30:53.909Z,12.92
2023-05-10T02:33:23.067Z,12.30
2023-05-10T02:35:51.933Z,12.44
2023-05-10T02:38:23.696Z,12.22
2023-05-10T02:40:51.716Z,12.45
2023-05-10T02:43:24.094Z,12.08
2023-05-10T02:45:51.243Z,12.19
2023-05-10T02:48:18.720Z,12.53
2023-05-10T02:50:52.137Z,12.00
2023-05-10T02:53:34.420Z,12.08
2023-05-10T02:56:12.025Z,12.81
2023-05-10T02:58:39.101Z,11.91
2023-05-10T03:01:07.710Z,11.75
2023-05-10T03:03:35.007Z,11.91
2023-05-10T03:06:02.150Z,12.26
2023-05-10T03:08:30.468Z,12.12
2023-05-10T03:11:40.996Z,11.92
2023-05-10T03:15:00.992Z,12.46
2023-05-10T03:17:59.222Z,12.13
2023-05-10T03:20:32.430Z,11.88
2023-05-10T03:23:30.312Z,12.42
2023-05-10T03:25:58.845Z,11.90
2023-05-10T03:28:28.087Z,12.02
2023-05-10T03:30:56.169Z,12.33
2023-05-10T03:33:23.320Z,12.76
2023-05-10T03:35:50.393Z,12.27
2023-05-10T03:38:17.450Z,12.24
2023-05-10T03:40:44.486Z,12.32
2023-05-10T03:43:11.558Z,12.29
2023-05-10T03:45:38.612Z,12.31
2023-05-10T03:48:09.557Z,12.34
2023-05-10T03:50:36.639Z,12.35
2023-05-10T03:53:03.767Z,12.31
2023-05-10T03:55:31.178Z,12.90
2023-05-10T03:57:59.416Z,12.85
2023-05-10T04:00:26.490Z,12.85
2023-05-10T04:02:53.650Z,12.69
2023-05-10T04:05:21.015Z,12.40
2023-05-10T04:07:50.188Z,12.81
2023-05-10T04:10:17.861Z,13.13
2023-05-10T04:12:45.218Z,12.65
2023-05-10T04:15:15.290Z,13.18
2023-05-10T04:17:42.427Z,13.16
2023-05-10T04:20:10.689Z,12.89
2023-05-10T04:22:37.823Z,13.16
2023-05-10T04:25:06.041Z,13.69
2023-05-10T04:27:33.341Z,13.87
2023-05-10T04:30:01.988Z,13.77
2023-05-10T04:32:29.227Z,13.97
2023-05-10T04:34:56.358Z,14.65
2023-05-10T04:37:24.176Z,14.14
2023-05-10T04:39:54.238Z,14.92
2023-05-10T04:42:21.332Z,15.02
2023-05-10T04:44:48.376Z,15.20
2023-05-10T04:47:17.190Z,15.86
2023-05-10T04:49:47.189Z,15.68
2023-05-10T04:52:15.322Z,15.67
2023-05-10T04:54:44.747Z,15.63
2023-05-10T04:57:11.816Z,15.86
2023-05-10T04:59:38.938Z,15.62
2023-05-10T05:02:06.717Z,15.59
2023-05-10T05:04:36.893Z,15.76
2023-05-10T05:07:03.978Z,15.04
2023-05-10T05:09:34.077Z,15.68
2023-05-10T05:12:01.415Z,15.78
2023-05-10T05:14:28.463Z,16.96
2023-05-10T05:16:55.550Z,16.13
2023-05-10T05:19:23.521Z,16.40
2023-05-10T05:21:50.760Z,16.51
2023-05-10T05:24:17.824Z,15.16
2023-05-10T05:26:44.954Z,16.51
2023-05-10T05:29:12.204Z,16.74
2023-05-10T05:31:39.582Z,16.10
2023-05-10T05:34:06.820Z,17.11
2023-05-10T05:36:39.300Z,17.03
2023-05-10T05:39:06.586Z,17.13
2023-05-10T05:41:36.857Z,17.86
2023-05-10T05:44:04.092Z,17.31
2023-05-10T05:46:31.430Z,17.47
2023-05-10T05:48:58.707Z,17.69
2023-05-10T05:51:26.232Z,17.80
2023-05-10T05:53:53.989Z,16.78
2023-05-10T05:56:25.501Z,17.29
2023-05-10T05:58:53.053Z,18.78
2023-05-10T06:01:20.552Z,19.16
2023-05-10T06:03:48.195Z,18.76
2023-05-10T06:06:16.216Z,18.70
2023-05-10T06:08:43.508Z,18.77
2023-05-10T06:11:10.793Z,18.38
2023-05-10T06:13:38.004Z,19.26
2023-05-10T06:16:05.620Z,18.93
2023-05-10T06:18:32.849Z,19.84
2023-05-10T06:21:06.202Z,19.05
2023-05-10T06:23:33.289Z,18.68
2023-05-10T06:26:00.384Z,19.26
2023-05-10T06:28:27.675Z,19.37
2023-05-10T06:30:54.725Z,18.01
2023-05-10T06:33:21.764Z,17.98
2023-05-10T06:35:48.912Z,18.81
2023-05-10T06:38:16.139Z,19.77
2023-05-10T06:40:46.703Z,18.50
2023-05-10T06:43:13.934Z,19.41
2023-05-10T06:45:41.865Z,19.97
2023-05-10T06:48:09.189Z,19.01
2023-05-10T06:50:36.506Z,20.03
2023-05-10T06:53:03.805Z,20.01
2023-05-10T06:55:32.184Z,20.32
2023-05-10T06:57:59.219Z,20.79
2023-05-10T07:00:26.440Z,20.56
2023-05-10T07:02:53.719Z,20.26
2023-05-10T07:05:21.239Z,20.11
2023-05-10T07:07:48.767Z,20.09
2023-05-10T07:10:16.282Z,20.12
2023-05-10T07:12:43.525Z,19.83
2023-05-10T07:15:11.437Z,20.35
2023-05-10T07:17:38.744Z,21.04
2023-05-10T07:20:09.762Z,19.96
2023-05-10T07:22:39.579Z,21.10
2023-05-10T07:25:10.828Z,20.43
2023-05-10T07:27:37.871Z,19.55
2023-05-10T07:30:05.792Z,20.55
2023-05-10T07:32:33.227Z,20.42
2023-05-10T07:35:00.752Z,20.92
2023-05-10T07:37:27.932Z,20.98
2023-05-10T07:39:55.057Z,19.94
2023-05-10T07:42:24.118Z,20.05
2023-05-10T07:44:52.019Z,21.78
2023-05-10T07:47:19.898Z,22.12
2023-05-10T07:49:47.263Z,20.46
2023-05-10T07:52:14.820Z,20.55
2023-05-10T07:54:42.223Z,21.08
2023-05-10T07:57:09.611Z,21.05
2023-05-10T07:59:37.436Z,21.13
2023-05-10T08:02:05.052Z,20.61
2023-05-10T08:04:33.258Z,21.55
2023-05-10T08:07:00.386Z,22.05
2023-05-10T08:09:39.333Z,21.92
2023-05-10T08:12:07.087Z,21.58
2023-05-10T08:14:34.265Z,21.94
2023-05-10T08:17:04.798Z,20.84
2023-05-10T08:19:32.024Z,21.02
2023-05-10T08:21:59.230Z,22.66
2023-05-10T08:24:26.486Z,22.78
2023-05-10T08:26:54.077Z,22.54
2023-05-10T08:29:21.484Z,22.97
2023-05-10T08:31:48.639Z,23.09
2023-05-10T08:36:43.335Z,22.41
2023-05-10T08:39:22.973Z,22.69
2023-05-10T08:42:02.948Z,23.18
2023-05-10T08:44:36.194Z,23.11
2023-05-10T08:47:09.113Z,23.77
2023-05-10T08:49:38.026Z,23.29
2023-05-10T08:52:06.877Z,24.51
2023-05-10T08:54:35.131Z,23.28
2023-05-10T08:57:05.750Z,24.13
2023-05-10T08:59:40.377Z,24.94
2023-05-10T09:02:09.624Z,23.58
2023-05-10T09:04:38.870Z,24.43
2023-05-10T09:07:08.142Z,25.47
2023-05-10T09:09:36.048Z,25.36
2023-05-10T09:12:03.373Z,25.06
2023-05-10T09:14:36.276Z,24.83
2023-05-10T09:17:03.659Z,25.73
2023-05-10T09:19:30.784Z,24.73
2023-05-10T09:21:57.922Z,24.57
2023-05-10T09:24:28.084Z,24.49
2023-05-10T09:26:57.519Z,24.89
2023-05-10T09:29:24.802Z,24.36
2023-05-10T09:31:55.441Z,26.34
2023-05-10T09:34:32.983Z,26.38
2023-05-10T09:37:05.120Z,23.78
2023-05-10T09:39:38.458Z,24.51
2023-05-10T09:42:10.887Z,25.02
2023-05-10T09:44:42.022Z,25.37
2023-05-10T09:47:09.119Z,25.88
2023-05-10T09:49:36.176Z,27.83
2023-05-10T09:52:06.306Z,25.49
2023-05-10T09:54:35.147Z,25.64
2023-05-10T09:57:04.078Z,26.91
2023-05-10T09:59:35.748Z,26.99
2023-05-10T10:02:03.689Z,27.31
2023-05-10T10:04:31.289Z,26.74
2023-05-10T10:07:04.719Z,25.50
2023-05-10T10:09:33.604Z,25.97
2023-05-10T10:12:02.938Z,25.18
2023-05-10T10:14:31.685Z,24.86
2023-05-10T10:17:08.033Z,26.87
2023-05-10T10:19:37.942Z,26.10
2023-05-10T10:22:06.924Z,27.51
2023-05-10T10:24:34.902Z,27.41
2023-05-10T10:27:53.913Z,26.18
2023-05-10T10:30:45.018Z,26.84
2023-05-10T10:34:10.749Z,28.51
2023-05-10T10:36:48.145Z,28.45
2023-05-10T10:39:16.103Z,27.35
2023-05-10T10:41:55.766Z,26.96
2023-05-10T10:44:34.947Z,28.52
2023-05-10T10:47:19.430Z,28.98
2023-05-10T10:50:01.583Z,29.58
2023-05-10T10:52:40.082Z,27.91
2023-05-10T10:55:15.813Z,27.99
2023-05-10T10:58:03.139Z,27.56
2023-05-10T11:00:41.970Z,28.80
2023-05-10T11:03:21.992Z,27.26
2023-05-10T11:05:52.249Z,28.79
2023-05-10T11:08:34.042Z,26.51
2023-05-10T11:11:04.979Z,27.50
2023-05-10T11:13:50.813Z,27.90
2023-05-10T11:16:24.794Z,28.08
2023-05-10T11:19:12.986Z,26.59
2023-05-10T11:22:16.495Z,28.83
2023-05-10T11:24:59.539Z,27.66
2023-05-10T11:27:26.854Z,27.56
2023-05-10T11:29:54.193Z,28.02
2023-05-10T11:32:21.778Z,29.70
2023-05-10T11:34:49.483Z,29.32
2023-05-10T11:37:21.697Z,28.65
2023-05-10T11:39:48.721Z,28.00
2023-05-10T11:42:16.130Z,28.71
2023-05-10T11:44:45.309Z,27.92
2023-05-10T11:47:13.575Z,30.12
2023-05-10T11:49:44.213Z,28.81
2023-05-10T11:52:12.457Z,28.63
2023-05-10T11:54:47.613Z,27.94
2023-05-10T11:57:16.303Z,28.17
2023-05-10T11:59:43.387Z,27.76
2023-05-10T12:02:11.433Z,30.19
2023-05-10T12:04:39.084Z,27.28
2023-05-10T12:07:06.543Z,28.12
2023-05-10T12:09:43.325Z,29.02
2023-05-10T12:12:16.856Z,28.46
2023-05-10T12:14:44.299Z,29.66
2023-05-10T12:17:14.531Z,28.81
2023-05-10T12:19:44.703Z,29.66
2023-05-10T12:22:11.857Z,29.75
2023-05-10T12:24:39.697Z,31.36
2023-05-10T12:27:09.377Z,30.72
2023-05-10T12:29:36.899Z,31.09
2023-05-10T12:32:04.071Z,32.31
2023-05-10T12:34:39.798Z,32.05
2023-05-10T12:37:10.054Z,30.93
2023-05-10T12:39:47.251Z,30.80
2023-05-10T12:42:14.577Z,30.36
2023-05-10T12:44:42.387Z,28.75
2023-05-10T12:47:09.688Z,29.85
2023-05-10T12:49:36.846Z,26.59
2023-05-10T12:52:04.441Z,29.44
2023-05-10T12:54:31.665Z,31.29
2023-05-10T12:56:59.168Z,29.56
2023-05-10T12:59:26.468Z,30.99
2023-05-10T13:01:53.605Z,28.97
2023-05-10T13:04:20.740Z,30.13
2023-05-10T13:06:47.978Z,30.74
2023-05-10T13:09:16.062Z,29.69
2023-05-10T13:11:43.243Z,29.38
2023-05-10T13:14:10.451Z,29.13
2023-05-10T13:16:37.690Z,28.23
2023-05-10T13:19:05.086Z,29.77
2023-05-10T13:21:35.702Z,31.66
2023-05-10T13:24:05.252Z,30.90
2023-05-10T13:26:32.317Z,29.23
2023-05-10T13:28:59.608Z,28.50
2023-05-10T13:31:26.787Z,28.25
2023-05-10T13:33:54.309Z,30.89
2023-05-10T13:36:21.473Z,31.26
2023-05-10T13:38:48.521Z,33.03
2023-05-10T13:41:15.710Z,30.46
2023-05-10T13:43:42.807Z,30.55
2023-05-10T13:46:10.381Z,30.10
2023-05-10T13:48:40.147Z,30.08
2023-05-10T13:51:07.468Z,31.39
2023-05-10T13:53:35.636Z,32.27
2023-05-10T13:56:03.805Z,32.66
2023-05-10T13:58:33.606Z,31.23
2023-05-10T14:01:00.763Z,31.81
2023-05-10T14:03:28.071Z,33.33
2023-05-10T14:05:57.813Z,33.01
2023-05-10T14:08:25.193Z,34.22
2023-05-10T14:10:53.216Z,33.41
2023-05-10T14:13:20.363Z,33.89
2023-05-10T14:15:47.428Z,33.00
2023-05-10T14:18:15.447Z,32.05
2023-05-10T14:20:45.618Z,30.84
2023-05-10T14:23:13.389Z,32.22
2023-05-10T14:25:43.666Z,32.08
2023-05-10T14:28:11.590Z,31.57
2023-05-10T14:30:38.660Z,32.34
2023-05-10T14:33:11.876Z,32.71
2023-05-10T14:35:38.954Z,31.09
2023-05-10T14:38:06.523Z,33.28
2023-05-10T14:40:34.055Z,33.94
2023-05-10T14:43:01.647Z,33.27
2023-05-10T14:45:30.731Z,32.26
2023-05-10T14:47:59.353Z,33.47
2023-05-10T14:50:36.532Z,33.44
2023-05-10T14:53:06.663Z,33.25
2023-05-10T14:55:33.890Z,32.66
2023-05-10T14:58:00.987Z,34.80
2023-05-10T15:00:30.441Z,33.85
2023-05-10T15:02:58.547Z,34.48
2023-05-10T15:05:26.544Z,33.77
2023-05-10T15:07:54.036Z,33.04
2023-05-10T15:10:21.097Z,33.65
2023-05-10T15:12:48.267Z,32.35
2023-05-10T15:15:16.228Z,30.74
2023-05-10T15:17:43.609Z,31.62
2023-05-10T15:20:11.315Z,31.03
2023-05-10T15:22:39.153Z,30.79
2023-05-10T15:25:08.340Z,33.56
2023-05-10T15:27:36.154Z,33.47
2023-05-10T15:30:03.552Z,33.83
2023-05-10T15:32:30.709Z,32.99
2023-05-10T15:34:58.008Z,30.12
2023-05-10T15:37:25.411Z,29.65
2023-05-10T15:39:52.435Z,31.87
2023-05-10T15:42:22.827Z,32.31
2023-05-10T15:44:51.140Z,33.53
2023-05-10T15:47:18.390Z,34.03
2023-05-10T15:49:45.690Z,34.94
2023-05-10T15:52:12.854Z,35.25
2023-05-10T15:54:40.693Z,34.87
2023-05-10T15:57:08.035Z,32.76
2023-05-10T15:59:36.369Z,32.28
2023-05-10T16:02:04.366Z,32.06
2023-05-10T16:04:31.548Z,30.28
2023-05-10T16:06:58.691Z,30.22
2023-05-10T16:09:27.534Z,29.50
2023-05-10T16:11:54.785Z,29.66
2023-05-10T16:14:22.924Z,30.22
2023-05-10T16:16:50.374Z,31.25
2023-05-10T16:19:17.772Z,30.72
2023-05-10T16:21:44.952Z,30.52
2023-05-10T16:24:12.231Z,29.86
2023-05-10T16:26:40.967Z,28.83
2023-05-10T16:29:09.324Z,28.86
2023-05-10T16:31:36.453Z,28.65
2023-05-10T16:34:03.785Z,28.05
2023-05-10T16:36:31.562Z,29.66
2023-05-10T16:38:58.892Z,29.82
2023-05-10T16:41:26.450Z,29.17
2023-05-10T16:43:55.101Z,29.63
2023-05-10T16:46:22.216Z,29.69
2023-05-10T16:48:49.399Z,28.72
2023-05-10T16:51:16.460Z,28.84
2023-05-10T16:53:43.700Z,29.52
2023-05-10T16:56:11.253Z,29.13
2023-05-10T16:58:39.471Z,28.67
2023-05-10T17:01:07.208Z,28.85
2023-05-10T17:03:34.657Z,28.62
2023-05-10T17:06:01.880Z,29.04
2023-05-10T17:08:28.955Z,28.99
2023-05-10T17:10:56.440Z,28.92
2023-05-10T17:13:23.508Z,29.08
2023-05-10T17:15:50.640Z,28.91
2023-05-10T17:18:18.157Z,29.37
2023-05-10T17:20:45.325Z,29.16
2023-05-10T17:23:12.590Z,28.91
2023-05-10T17:25:39.697Z,28.77
2023-05-10T17:28:06.737Z,28.45
2023-05-10T17:30:33.948Z,25.66
2023-05-10T17:33:01.833Z,25.75
2023-05-10T17:35:31.273Z,26.84
2023-05-10T17:37:58.310Z,27.04
2023-05-10T17:40:25.457Z,25.86
2023-05-10T17:42:52.575Z,25.90
2023-05-10T17:45:19.903Z,26.71
2023-05-10T17:47:47.184Z,26.26
2023-05-10T17:50:14.304Z,24.85
2023-05-10T17:52:41.411Z,25.13
2023-05-10T17:55:09.040Z,25.38
2023-05-10T17:57:38.073Z,25.35
2023-05-10T18:00:09.120Z,25.47
2023-05-10T18:02:37.002Z,25.48
2023-05-10T18:05:05.478Z,25.47
2023-05-10T18:07:32.664Z,25.51
2023-05-10T18:10:00.973Z,24.43
2023-05-10T18:12:28.107Z,25.19
2023-05-10T18:14:55.170Z,25.04
2023-05-10T18:17:22.366Z,24.88
2023-05-10T18:19:49.511Z,24.77
2023-05-10T18:22:16.573Z,24.62
2023-05-10T18:24:43.647Z,24.68
2023-05-10T18:27:11.270Z,24.82
2023-05-10T18:29:39.389Z,24.25
2023-05-10T18:32:07.378Z,24.37
2023-05-10T18:34:34.459Z,24.37
2023-05-10T18:37:07.035Z,24.09
2023-05-10T18:39:34.495Z,24.49
2023-05-10T18:42:01.751Z,24.28
2023-05-10T18:44:28.901Z,24.38
2023-05-10T18:46:56.551Z,24.61
2023-05-10T18:49:23.826Z,24.61
2023-05-10T18:51:51.201Z,24.51
2023-05-10T18:54:18.330Z,24.27
2023-05-10T18:56:45.542Z,24.20
2023-05-10T18:59:13.428Z,24.01
2023-05-10T19:01:43.769Z,23.89
2023-05-10T19:04:13.223Z,23.79
2023-05-10T19:06:43.276Z,23.72
2023-05-10T19:09:10.663Z,22.98
2023-05-10T19:11:37.796Z,23.14
2023-05-10T19:14:05.784Z,23.11
2023-05-10T19:16:34.494Z,22.79
2023-05-10T19:19:02.955Z,23.21
2023-05-10T19:21:31.514Z,23.40
2023-05-10T19:23:58.921Z,23.26
2023-05-10T19:26:26.004Z,23.19
2023-05-10T19:28:53.729Z,23.10
2023-05-10T19:31:21.768Z,23.01
2023-05-10T19:33:49.068Z,22.82
2023-05-10T19:36:16.282Z,22.31
2023-05-10T19:38:43.434Z,22.56
2023-05-10T19:41:11.364Z,22.11
2023-05-10T19:43:39.528Z,22.32
2023-05-10T19:46:06.695Z,22.46
2023-05-10T19:48:33.776Z,22.83
2023-05-10T19:51:03.907Z,22.20
2023-05-10T19:53:32.340Z,21.67
2023-05-10T19:56:06.457Z,21.07
2023-05-10T19:58:34.097Z,21.07
2023-05-10T20:01:01.650Z,21.15
2023-05-10T20:03:29.110Z,21.31
2023-05-10T20:05:56.295Z,21.70
2023-05-10T20:08:23.392Z,21.23
2023-05-10T20:10:50.669Z,21.37
2023-05-10T20:13:17.906Z,21.44
2023-05-10T20:15:46.074Z,21.89
2023-05-10T20:18:13.171Z,21.71
2023-05-10T20:20:40.298Z,21.12
2023-05-10T20:23:07.441Z,21.63
2023-05-10T20:25:38.002Z,21.98
2023-05-10T20:28:05.765Z,21.94
2023-05-10T20:30:32.938Z,20.86
2023-05-10T20:33:00.116Z,20.84
2023-05-10T20:35:27.393Z,20.50
2023-05-10T20:37:54.474Z,19.18
2023-05-10T20:40:21.610Z,19.12
2023-05-10T20:42:49.572Z,19.64
2023-05-10T20:45:16.686Z,19.99
2023-05-10T20:47:44.060Z,20.38
2023-05-10T20:50:11.713Z,20.07
2023-05-10T20:52:38.800Z,20.97
2023-05-10T20:55:06.896Z,21.27
2023-05-10T20:57:33.954Z,20.72
2023-05-10T21:00:01.062Z,21.06
2023-05-10T21:02:28.219Z,19.83
2023-05-10T21:04:57.806Z,19.81
2023-05-10T21:07:25.424Z,19.82
2023-05-10T21:09:52.539Z,19.21
2023-05-10T21:12:21.757Z,19.94
2023-05-10T21:14:48.865Z,20.16
2023-05-10T21:17:16.954Z,20.06
2023-05-10T21:19:45.124Z,19.35
2023-05-10T21:22:12.162Z,19.19
2023-05-10T21:24:39.214Z,19.45
2023-05-10T21:27:07.451Z,18.65
2023-05-10T21:29:34.608Z,18.91
2023-05-10T21:32:01.733Z,19.76
2023-05-10T21:34:28.983Z,20.29
2023-05-10T21:36:56.068Z,20.68
2023-05-10T21:39:23.169Z,20.39
2023-05-10T21:41:50.216Z,20.55
2023-05-10T21:44:20.071Z,20.75
2023-05-10T21:46:47.346Z,20.52
2023-05-10T21:49:14.387Z,20.15
2023-05-10T21:51:44.055Z,20.39
2023-05-10T21:54:11.238Z,20.38
2023-05-10T21:56:38.561Z,20.08
2023-05-10T21:59:06.052Z,20.11
2023-05-10T22:01:33.190Z,20.30
2023-05-10T22:04:00.637Z,20.30
2023-05-10T22:06:27.832Z,20.15
2023-05-10T22:08:54.882Z,20.19
2023-05-10T22:11:21.962Z,19.96
2023-05-10T22:13:49.024Z,19.93
2023-05-10T22:16:18.168Z,19.96
2023-05-10T22:18:45.277Z,19.83
2023-05-10T22:21:15.154Z,18.90
2023-05-10T22:23:42.240Z,18.41
2023-05-10T22:26:09.458Z,18.95
2023-05-10T22:28:39.032Z,19.47
2023-05-10T22:31:13.427Z,19.52
2023-05-10T22:33:40.557Z,19.63
2023-05-10T22:36:08.385Z,19.63
2023-05-10T22:38:35.462Z,19.61
2023-05-10T22:41:02.547Z,19.24
2023-05-10T22:43:29.634Z,17.15
2023-05-10T22:45:56.702Z,16.77
2023-05-10T22:48:23.869Z,17.04
2023-05-10T22:50:51.927Z,16.36
2023-05-10T22:53:18.984Z,16.40
2023-05-10T22:55:46.995Z,16.59
2023-05-10T22:58:14.102Z,16.65
2023-05-10T23:00:41.224Z,16.83
2023-05-10T23:03:08.401Z,15.80
2023-05-10T23:05:37.915Z,15.24
2023-05-10T23:08:05.645Z,15.52
2023-05-10T23:10:32.870Z,16.30
2023-05-10T23:12:59.989Z,15.80
2023-05-10T23:16:18.785Z,15.16
2023-05-10T23:18:45.958Z,14.77
2023-05-10T23:21:13.033Z,15.06
2023-05-10T23:23:40.523Z,15.52
2023-05-10T23:26:08.734Z,15.17
2023-05-10T23:28:35.815Z,15.55
2023-05-10T23:31:02.895Z,16.02
2023-05-10T23:33:29.937Z,15.83
2023-05-10T23:35:59.935Z,14.89
2023-05-10T23:38:27.083Z,14.87
2023-05-10T23:40:54.372Z,14.64
2023-05-10T23:43:21.847Z,14.76
2023-05-10T23:45:56.753Z,14.75
2023-05-10T23:48:24.345Z,14.61
2023-05-10T23:50:51.734Z,15.32
2023-05-10T23:53:19.199Z,15.04
2023-05-10T23:55:46.346Z,14.24
2023-05-10T23:58:13.553Z,14.22
